createdAt,value
2019-02-16T00:02:26.548Z,8.73
2019-02-16T00:04:55.043Z,9.43
2019-02-16T00:07:23.507Z,9.13
2019-02-16T00:09:52.035Z,8.80
2019-02-16T00:12:20.486Z,9.43
2019-02-16T00:14:48.969Z,9.57
2019-02-16T00:17:17.440Z,9.20
2019-02-16T00:19:45.922Z,9.53
2019-02-16T00:22:14.395Z,8.97
2019-02-16T00:24:42.882Z,9.60
2019-02-16T00:27:11.359Z,8.47
2019-02-16T00:29:39.847Z,9.47
2019-02-16T00:32:08.307Z,9.10
2019-02-16T00:34:36.793Z,8.77
2019-02-16T00:37:05.263Z,9.03
2019-02-16T00:39:33.754Z,9.50
2019-02-16T00:42:02.234Z,9.90
2019-02-16T00:44:30.731Z,9.17
2019-02-16T00:46:59.197Z,8.87
2019-02-16T00:49:27.706Z,8.53
2019-02-16T00:51:56.289Z,9.73
2019-02-16T00:54:24.780Z,9.23
2019-02-16T00:56:53.242Z,8.93
2019-02-16T00:59:21.727Z,8.67
2019-02-16T01:01:50.256Z,9.37
2019-02-16T01:04:19.834Z,9.30
2019-02-16T01:06:48.473Z,9.07
2019-02-16T01:09:16.958Z,8.83
2019-02-16T01:11:45.432Z,9.47
2019-02-16T01:14:13.920Z,8.73
2019-02-16T01:16:42.394Z,9.13
2019-02-16T01:19:10.889Z,7.80
2019-02-16T01:21:39.336Z,9.10
2019-02-16T01:24:07.830Z,8.47
2019-02-16T01:26:36.283Z,8.10
2019-02-16T01:29:04.775Z,8.30
2019-02-16T01:31:33.241Z,8.13
2019-02-16T01:34:01.717Z,8.97
2019-02-16T01:36:30.175Z,9.13
2019-02-16T01:38:58.717Z,8.27
2019-02-16T01:41:27.140Z,8.30
2019-02-16T01:43:55.631Z,8.03
2019-02-16T01:46:24.088Z,8.07
2019-02-16T01:48:52.572Z,7.70
2019-02-16T01:51:21.052Z,8.50
2019-02-16T01:53:49.524Z,8.20
2019-02-16T01:56:18.003Z,7.77
2019-02-16T01:58:46.497Z,8.53
2019-02-16T02:01:14.945Z,7.80
2019-02-16T02:03:43.438Z,8.20
2019-02-16T02:06:11.882Z,7.67
2019-02-16T02:08:40.358Z,7.63
2019-02-16T02:11:08.996Z,7.90
2019-02-16T02:13:37.485Z,8.03
2019-02-16T02:16:05.943Z,7.63
2019-02-16T02:18:34.416Z,8.70
2019-02-16T02:21:02.877Z,8.10
2019-02-16T02:23:31.356Z,8.43
2019-02-16T02:25:59.836Z,7.93
2019-02-16T02:28:28.312Z,7.93
2019-02-16T02:30:56.774Z,7.70
2019-02-16T02:33:25.306Z,7.60
2019-02-16T02:35:53.799Z,7.97
2019-02-16T02:38:22.261Z,7.90
2019-02-16T02:40:50.739Z,8.37
2019-02-16T02:43:19.194Z,8.10
2019-02-16T02:45:47.686Z,8.13
2019-02-16T02:48:16.146Z,8.07
2019-02-16T02:50:44.648Z,8.30
2019-02-16T02:53:13.120Z,8.80
2019-02-16T02:55:41.597Z,7.83
2019-02-16T02:58:10.051Z,8.40
2019-02-16T03:00:38.534Z,8.87
2019-02-16T03:03:06.996Z,7.30
2019-02-16T03:05:35.473Z,8.87
2019-02-16T03:08:03.938Z,8.47
2019-02-16T03:10:32.400Z,9.30
2019-02-16T03:13:00.876Z,8.63
2019-02-16T03:15:29.355Z,8.47
2019-02-16T03:17:57.809Z,8.90
2019-02-16T03:20:26.291Z,9.20
2019-02-16T03:23:15.237Z,9.40
2019-02-16T03:26:07.392Z,8.60
2019-02-16T03:28:38.910Z,9.27
2019-02-16T03:31:25.484Z,8.97
2019-02-16T03:34:02.836Z,9.30
2019-02-16T03:36:49.245Z,9.20
2019-02-16T03:39:17.767Z,8.23
2019-02-16T03:41:46.250Z,9.30
2019-02-16T03:44:14.710Z,9.20
2019-02-16T03:46:43.201Z,9.63
2019-02-16T03:49:11.666Z,8.97
2019-02-16T03:51:40.163Z,9.70
2019-02-16T03:54:08.629Z,9.63
2019-02-16T03:56:37.113Z,9.23
2019-02-16T03:59:05.596Z,10.20
2019-02-16T04:01:34.089Z,9.80
2019-02-16T04:04:02.558Z,9.93
2019-02-16T04:06:31.059Z,9.23
2019-02-16T04:08:59.521Z,9.43
2019-02-16T04:11:28.020Z,9.13
2019-02-16T04:13:56.471Z,9.90
2019-02-16T04:16:24.960Z,9.33
2019-02-16T04:18:53.428Z,9.13
2019-02-16T04:21:21.907Z,9.43
2019-02-16T04:23:50.365Z,9.67
2019-02-16T04:26:18.857Z,9.40
2019-02-16T04:28:47.319Z,8.97
2019-02-16T04:31:15.800Z,9.30
2019-02-16T04:33:44.260Z,9.20
2019-02-16T04:36:12.739Z,9.53
2019-02-16T04:38:41.213Z,8.93
2019-02-16T04:41:09.699Z,9.10
2019-02-16T04:43:38.157Z,8.87
2019-02-16T04:46:06.640Z,9.77
2019-02-16T04:48:35.099Z,8.97
2019-02-16T04:51:03.590Z,9.30
2019-02-16T04:53:32.055Z,8.83
2019-02-16T04:56:00.551Z,8.63
2019-02-16T04:58:29.007Z,8.90
2019-02-16T05:00:57.506Z,9.63
2019-02-16T05:03:25.969Z,9.20
2019-02-16T05:05:54.449Z,9.30
2019-02-16T05:08:22.924Z,9.07
2019-02-16T05:10:51.434Z,9.63
2019-02-16T05:13:19.890Z,9.27
2019-02-16T05:15:48.337Z,8.70
2019-02-16T05:18:16.811Z,9.70
2019-02-16T05:20:45.272Z,9.63
2019-02-16T05:23:13.752Z,9.10
2019-02-16T05:25:42.221Z,9.17
2019-02-16T05:28:10.714Z,9.37
2019-02-16T05:30:39.181Z,9.80
2019-02-16T05:33:07.679Z,9.47
2019-02-16T05:35:36.125Z,9.27
2019-02-16T05:38:04.606Z,9.50
2019-02-16T05:40:33.065Z,9.00
2019-02-16T05:43:01.551Z,8.73
2019-02-16T05:45:30.017Z,9.83
2019-02-16T05:47:58.497Z,8.97
2019-02-16T05:50:26.967Z,9.27
2019-02-16T05:52:55.456Z,9.77
2019-02-16T05:55:23.905Z,9.27
2019-02-16T05:57:52.492Z,9.73
2019-02-16T06:00:22.598Z,8.83
2019-02-16T06:02:51.093Z,8.87
2019-02-16T06:05:19.562Z,8.97
2019-02-16T06:07:48.060Z,9.57
2019-02-16T06:10:16.556Z,9.50
2019-02-16T06:12:45.029Z,9.50
2019-02-16T06:15:13.510Z,9.60
2019-02-16T06:17:41.976Z,9.73
2019-02-16T06:20:10.462Z,9.17
2019-02-16T06:22:38.922Z,9.70
2019-02-16T06:25:07.476Z,9.80
2019-02-16T06:27:35.947Z,9.50
2019-02-16T06:30:05.763Z,9.50
2019-02-16T06:32:34.242Z,10.20
2019-02-16T06:35:13.530Z,9.97
2019-02-16T06:37:41.993Z,9.73
2019-02-16T06:40:10.473Z,10.30
2019-02-16T06:42:38.935Z,10.47
2019-02-16T06:45:07.647Z,9.67
2019-02-16T06:47:36.121Z,9.80
2019-02-16T06:50:05.734Z,10.13
2019-02-16T06:52:34.187Z,8.60
2019-02-16T06:55:02.670Z,10.10
2019-02-16T06:57:31.591Z,9.53
2019-02-16T07:00:00.125Z,9.73
2019-02-16T07:02:29.887Z,10.07
2019-02-16T07:04:58.384Z,9.67
2019-02-16T07:07:26.842Z,9.03
2019-02-16T07:09:55.325Z,9.33
2019-02-16T07:12:23.773Z,9.60
2019-02-16T07:14:52.249Z,9.80
2019-02-16T07:17:22.343Z,9.23
2019-02-16T07:19:52.095Z,9.00
2019-02-16T07:22:20.549Z,9.63
2019-02-16T07:24:49.044Z,9.30
2019-02-16T07:27:17.501Z,9.00
2019-02-16T07:29:46.011Z,10.33
2019-02-16T07:32:14.484Z,9.47
2019-02-16T07:34:42.972Z,8.97
2019-02-16T07:37:11.492Z,9.27
2019-02-16T07:39:39.972Z,8.70
2019-02-16T07:42:08.421Z,8.70
2019-02-16T07:44:47.248Z,9.57
2019-02-16T07:47:17.347Z,9.23
2019-02-16T07:49:56.229Z,8.97
2019-02-16T07:52:29.317Z,8.37
2019-02-16T07:54:59.440Z,8.50
2019-02-16T07:57:35.364Z,8.17
2019-02-16T08:00:06.738Z,8.37
2019-02-16T08:02:36.911Z,7.80
2019-02-16T08:05:07.523Z,8.00
2019-02-16T08:07:40.077Z,7.83
2019-02-16T08:13:19.170Z,12.90
2019-02-16T08:15:52.189Z,10.47
2019-02-16T08:21:23.201Z,8.43
2019-02-16T08:23:59.537Z,7.83
2019-02-16T08:26:41.744Z,7.10
2019-02-16T08:29:11.858Z,7.47
2019-02-16T08:31:54.035Z,6.93
2019-02-16T08:34:29.719Z,7.43
2019-02-16T08:36:59.839Z,6.77
2019-02-16T08:39:32.852Z,6.57
2019-02-16T08:42:02.967Z,6.80
2019-02-16T08:44:41.696Z,6.60
2019-02-16T08:47:14.312Z,6.37
2019-02-16T08:50:00.819Z,5.87
2019-02-16T08:52:46.190Z,6.23
2019-02-16T08:55:16.307Z,6.27
2019-02-16T08:57:49.077Z,5.90
2019-02-16T09:00:31.386Z,6.23
2019-02-16T09:03:17.811Z,6.00
2019-02-16T09:05:47.933Z,5.80
2019-02-16T09:08:23.759Z,5.40
2019-02-16T09:10:56.315Z,5.47
2019-02-16T09:13:29.128Z,5.87
2019-02-16T09:15:59.256Z,5.30
2019-02-16T09:18:35.147Z,5.10
2019-02-16T09:21:21.474Z,5.60
2019-02-16T09:24:09.392Z,5.27
2019-02-16T09:26:51.842Z,5.37
2019-02-16T09:32:23.295Z,4.93
2019-02-16T09:34:53.415Z,5.27
2019-02-16T09:37:25.959Z,4.70
2019-02-16T09:39:56.056Z,4.70
2019-02-16T09:42:38.315Z,4.53
2019-02-16T09:45:09.796Z,4.20
2019-02-16T09:47:39.936Z,4.77
2019-02-16T09:50:12.994Z,4.67
2019-02-16T09:52:43.128Z,4.30
2019-02-16T09:55:13.233Z,4.00
2019-02-16T09:57:58.387Z,3.90
2019-02-16T10:00:46.843Z,3.90
2019-02-16T10:06:25.410Z,4.23
2019-02-16T10:08:55.512Z,4.17
2019-02-16T10:11:28.809Z,4.40
2019-02-16T10:13:58.917Z,4.50
2019-02-16T10:16:34.800Z,4.03
2019-02-16T10:19:07.557Z,4.10
2019-02-16T10:21:52.343Z,4.50
2019-02-16T10:24:38.643Z,4.33
2019-02-16T10:27:14.209Z,3.77
2019-02-16T10:29:53.071Z,4.10
2019-02-16T10:32:28.671Z,4.07
2019-02-16T10:35:01.422Z,4.03
2019-02-16T10:37:31.555Z,4.00
2019-02-16T10:40:07.331Z,4.00
2019-02-16T10:42:37.452Z,3.73
2019-02-16T10:45:10.484Z,4.00
2019-02-16T10:47:43.035Z,3.70
2019-02-16T10:50:16.412Z,3.53
2019-02-16T10:53:02.802Z,5.30
2019-02-16T10:55:32.908Z,3.63
2019-02-16T10:58:17.928Z,3.47
2019-02-16T11:01:04.147Z,3.83
2019-02-16T11:03:40.008Z,3.80
2019-02-16T11:06:13.107Z,3.80
2019-02-16T11:08:46.439Z,3.80
2019-02-16T11:11:19.249Z,3.93
2019-02-16T11:13:49.390Z,3.90
2019-02-16T11:16:23.503Z,4.00
2019-02-16T11:18:53.637Z,4.20
2019-02-16T11:21:32.395Z,4.37
2019-02-16T11:24:05.347Z,4.30
2019-02-16T11:26:44.646Z,4.03
2019-02-16T11:29:17.768Z,3.77
2019-02-16T11:31:47.869Z,3.63
2019-02-16T11:34:18.001Z,3.53
2019-02-16T11:36:48.128Z,3.43
2019-02-16T11:39:30.472Z,3.40
2019-02-16T11:42:00.575Z,3.67
2019-02-16T11:44:36.416Z,3.83
2019-02-16T11:47:09.234Z,4.20
2019-02-16T11:49:42.053Z,4.30
2019-02-16T11:52:12.147Z,3.30
2019-02-16T11:54:51.195Z,3.20
2019-02-16T11:57:30.247Z,3.30
2019-02-16T12:00:03.154Z,2.83
2019-02-16T12:02:39.485Z,2.47
2019-02-16T12:05:11.280Z,2.90
2019-02-16T12:07:43.916Z,2.83
2019-02-16T12:10:16.733Z,2.63
2019-02-16T12:12:49.719Z,2.53
2019-02-16T12:15:19.841Z,2.63
2019-02-16T12:17:52.657Z,2.53
2019-02-16T12:20:38.681Z,2.60
2019-02-16T12:23:23.877Z,2.97
2019-02-16T12:25:59.483Z,2.70
2019-02-16T12:28:29.611Z,2.80
2019-02-16T12:31:08.753Z,2.73
2019-02-16T12:33:47.751Z,2.70
2019-02-16T12:36:21.916Z,2.80
2019-02-16T12:38:52.319Z,2.57
2019-02-16T12:41:24.871Z,2.40
2019-02-16T12:44:11.170Z,2.70
2019-02-16T12:46:59.615Z,2.77
2019-02-16T12:49:44.735Z,2.10
2019-02-16T12:52:24.062Z,2.57
2019-02-16T12:55:14.790Z,2.50
2019-02-16T12:57:44.822Z,2.53
2019-02-16T13:00:20.767Z,2.30
2019-02-16T13:03:08.972Z,2.23
2019-02-16T13:05:48.339Z,2.03
2019-02-16T13:08:21.155Z,3.03
2019-02-16T13:11:00.334Z,4.10
2019-02-16T13:13:36.436Z,2.00
2019-02-16T13:16:18.703Z,2.30
2019-02-16T13:18:54.380Z,2.00
2019-02-16T13:21:40.614Z,1.90
2019-02-16T13:24:25.594Z,2.30
2019-02-16T13:27:11.792Z,2.37
2019-02-16T13:29:57.984Z,2.17
2019-02-16T13:32:30.815Z,1.90
2019-02-16T13:35:10.086Z,2.17
2019-02-16T13:37:46.344Z,1.77
2019-02-16T13:40:19.345Z,1.93
2019-02-16T13:42:49.458Z,2.03
2019-02-16T13:48:11.603Z,2.30
2019-02-16T13:50:41.781Z,1.70
2019-02-16T13:53:28.024Z,1.93
2019-02-16T13:56:13.154Z,1.90
2019-02-16T13:58:46.195Z,3.17
2019-02-16T14:01:19.288Z,4.90
2019-02-16T14:03:52.369Z,4.70
2019-02-16T14:06:25.497Z,3.47
2019-02-16T14:09:01.742Z,2.20
2019-02-16T14:11:31.857Z,1.80
2019-02-16T14:14:07.927Z,1.90
2019-02-16T14:16:38.072Z,1.90
2019-02-16T14:19:06.527Z,1.90
2019-02-16T14:21:35.010Z,1.93
2019-02-16T14:24:03.488Z,1.87
2019-02-16T14:26:31.967Z,1.80
2019-02-16T14:29:00.446Z,1.70
2019-02-16T14:31:28.930Z,2.17
2019-02-16T14:33:57.410Z,3.10
2019-02-16T14:36:25.891Z,2.60
2019-02-16T14:38:58.657Z,1.80
2019-02-16T14:41:27.152Z,2.40
2019-02-16T14:43:55.620Z,1.93
2019-02-16T14:46:24.081Z,2.40
2019-02-16T14:48:52.584Z,2.50
2019-02-16T14:51:21.044Z,2.20
2019-02-16T14:53:49.527Z,2.60
2019-02-16T14:56:17.978Z,2.30
2019-02-16T14:58:46.462Z,2.40
2019-02-16T15:01:14.936Z,2.30
2019-02-16T15:03:43.429Z,2.50
2019-02-16T15:06:11.899Z,2.67
2019-02-16T15:08:40.429Z,2.23
2019-02-16T15:11:08.883Z,2.27
2019-02-16T15:13:37.399Z,2.67
2019-02-16T15:16:05.901Z,2.60
2019-02-16T15:18:34.390Z,2.43
2019-02-16T15:21:02.857Z,2.37
2019-02-16T15:23:31.339Z,2.60
2019-02-16T15:26:01.344Z,2.50
2019-02-16T15:28:30.148Z,2.70
2019-02-16T15:30:58.628Z,2.50
2019-02-16T15:33:27.144Z,3.17
2019-02-16T15:35:55.607Z,5.63
2019-02-16T15:38:24.107Z,3.90
2019-02-16T15:40:52.566Z,2.60
2019-02-16T15:43:21.045Z,2.90
2019-02-16T15:45:49.518Z,2.87
2019-02-16T15:48:17.986Z,3.13
2019-02-16T15:50:46.478Z,2.80
2019-02-16T15:53:14.946Z,2.53
2019-02-16T15:55:43.447Z,2.50
2019-02-16T15:58:11.924Z,3.23
2019-02-16T16:00:40.519Z,2.40
2019-02-16T16:03:09.036Z,2.53
2019-02-16T16:05:37.510Z,6.03
2019-02-16T16:08:23.742Z,13.47
2019-02-16T16:10:56.593Z,6.20
2019-02-16T16:13:29.427Z,4.27
2019-02-16T16:15:59.557Z,2.87
2019-02-16T16:18:29.664Z,2.47
2019-02-16T16:21:16.174Z,2.50
2019-02-16T16:23:46.278Z,2.70
2019-02-16T16:26:22.195Z,2.40
2019-02-16T16:29:00.624Z,2.23
2019-02-16T16:31:29.880Z,2.57
2019-02-16T16:34:09.042Z,2.63
2019-02-16T16:36:39.163Z,2.90
2019-02-16T16:39:12.611Z,2.80
2019-02-16T16:41:51.723Z,3.00
2019-02-16T16:44:24.698Z,3.40
2019-02-16T16:47:06.581Z,2.70
2019-02-16T16:49:42.541Z,2.90
2019-02-16T16:52:12.680Z,2.80
2019-02-16T16:54:45.494Z,3.10
2019-02-16T16:57:24.676Z,3.00
2019-02-16T17:02:46.705Z,2.93
2019-02-16T17:05:25.668Z,3.07
2019-02-16T17:08:01.292Z,2.83
2019-02-16T17:10:43.467Z,3.20
2019-02-16T17:13:29.751Z,3.00
2019-02-16T17:16:12.106Z,3.30
2019-02-16T17:18:51.168Z,4.10
2019-02-16T17:21:37.776Z,3.20
2019-02-16T17:24:16.971Z,3.67
2019-02-16T17:26:52.893Z,3.50
2019-02-16T17:29:22.997Z,3.30
2019-02-16T17:31:55.853Z,3.37
2019-02-16T17:34:32.031Z,3.63
2019-02-16T17:37:02.167Z,4.10
2019-02-16T17:39:34.948Z,3.83
2019-02-16T17:42:10.854Z,3.87
2019-02-16T17:44:53.198Z,3.83
2019-02-16T17:47:39.597Z,3.63
2019-02-16T17:50:10.877Z,4.03
2019-02-16T17:52:43.985Z,5.73
2019-02-16T17:55:19.922Z,9.57
2019-02-16T18:00:44.531Z,8.33
2019-02-16T18:03:26.940Z,6.40
2019-02-16T18:05:57.051Z,5.73
2019-02-16T18:08:36.183Z,5.70
2019-02-16T18:11:21.529Z,5.77
2019-02-16T18:13:57.605Z,5.00
2019-02-16T18:16:27.763Z,5.00
2019-02-16T18:19:00.636Z,5.20
2019-02-16T18:21:31.003Z,4.90
2019-02-16T18:24:06.579Z,4.77
2019-02-16T18:26:56.589Z,5.70
2019-02-16T18:29:24.673Z,7.30
2019-02-16T18:32:01.084Z,7.97
2019-02-16T18:34:34.061Z,7.27
2019-02-16T18:37:04.200Z,7.17
2019-02-16T18:39:49.584Z,7.63
2019-02-16T18:42:36.244Z,7.47
2019-02-16T18:45:06.997Z,7.87
2019-02-16T18:47:49.179Z,7.17
2019-02-16T18:50:22.015Z,7.83
2019-02-16T18:52:52.145Z,8.47
2019-02-16T18:55:31.135Z,7.60
2019-02-16T18:58:04.224Z,8.17
2019-02-16T19:00:40.013Z,8.67
2019-02-16T19:03:10.230Z,7.73
2019-02-16T19:05:43.380Z,8.40
2019-02-16T19:08:31.602Z,7.90
2019-02-16T19:13:59.292Z,7.17
2019-02-16T19:16:29.504Z,7.67
2019-02-16T19:19:17.714Z,7.37
2019-02-16T19:21:53.469Z,7.40
2019-02-16T19:27:43.959Z,7.57
2019-02-16T19:30:20.200Z,7.90
2019-02-16T19:32:54.912Z,7.60
2019-02-16T19:35:25.074Z,6.97
2019-02-16T19:38:00.752Z,7.50
2019-02-16T19:40:36.744Z,8.10
2019-02-16T19:43:18.916Z,8.20
2019-02-16T19:46:04.883Z,7.77
2019-02-16T19:48:34.996Z,7.63
2019-02-16T19:51:17.304Z,7.80
2019-02-16T19:54:03.884Z,7.87
2019-02-16T19:56:48.977Z,8.30
2019-02-16T19:59:33.894Z,9.00
2019-02-16T20:02:03.992Z,9.10
2019-02-16T20:04:34.138Z,8.97
2019-02-16T20:07:22.337Z,9.37
2019-02-16T20:12:52.960Z,7.33
2019-02-16T20:15:31.937Z,7.90
2019-02-16T20:18:10.604Z,7.00
2019-02-16T20:20:43.307Z,7.10
2019-02-16T20:23:22.239Z,7.20
2019-02-16T20:25:52.353Z,7.23
2019-02-16T20:28:25.001Z,7.00
2019-02-16T20:30:58.194Z,6.93
2019-02-16T20:33:34.250Z,7.93
2019-02-16T20:36:04.385Z,7.13
2019-02-16T20:38:37.402Z,7.63
2019-02-16T20:41:10.509Z,8.30
2019-02-16T20:43:40.627Z,7.80
2019-02-16T20:46:13.472Z,7.27
2019-02-16T20:48:46.045Z,9.23
2019-02-16T20:51:24.977Z,9.20
2019-02-16T20:53:55.146Z,8.83
2019-02-16T20:56:34.277Z,8.50
2019-02-16T20:59:19.496Z,8.23
2019-02-16T21:01:55.345Z,9.07
2019-02-16T21:04:28.042Z,9.03
2019-02-16T21:06:58.130Z,7.60
2019-02-16T21:09:28.279Z,9.23
2019-02-16T21:12:01.311Z,8.17
2019-02-16T21:14:34.529Z,8.53
2019-02-16T21:17:10.097Z,8.23
2019-02-16T21:19:43.244Z,7.63
2019-02-16T21:22:13.388Z,8.07
2019-02-16T21:24:49.518Z,7.77
2019-02-16T21:27:19.623Z,8.27
2019-02-16T21:29:49.721Z,9.83
2019-02-16T21:32:26.077Z,9.30
2019-02-16T21:34:59.159Z,9.23
2019-02-16T21:37:45.738Z,9.53
2019-02-16T21:40:21.354Z,8.80
2019-02-16T21:42:51.648Z,9.50
2019-02-16T21:45:21.932Z,9.60
2019-02-16T21:48:10.223Z,10.03
2019-02-16T21:50:56.525Z,9.10
2019-02-16T21:53:29.496Z,9.77
2019-02-16T21:56:02.466Z,9.00
2019-02-16T21:58:32.922Z,8.53
2019-02-16T22:01:12.026Z,10.37
2019-02-16T22:03:58.642Z,9.70
2019-02-16T22:06:31.838Z,9.33
2019-02-16T22:09:19.814Z,9.77
2019-02-16T22:12:05.320Z,9.40
2019-02-16T22:14:33.742Z,8.77
2019-02-16T22:17:02.255Z,9.17
2019-02-16T22:19:30.740Z,10.27
2019-02-16T22:21:59.233Z,9.70
2019-02-16T22:24:27.764Z,9.00
2019-02-16T22:26:56.248Z,8.73
2019-02-16T22:29:24.717Z,8.07
2019-02-16T22:31:53.215Z,9.20
2019-02-16T22:34:21.751Z,9.50
2019-02-16T22:36:52.895Z,9.80
2019-02-16T22:39:21.376Z,9.40
2019-02-16T22:41:49.871Z,9.37
2019-02-16T22:44:18.399Z,9.50
2019-02-16T22:46:50.038Z,9.70
2019-02-16T22:49:18.852Z,9.17
2019-02-16T22:51:47.369Z,9.43
2019-02-16T22:54:17.235Z,9.53
2019-02-16T22:56:45.722Z,9.83
2019-02-16T22:59:14.186Z,10.00
2019-02-16T23:01:42.964Z,9.50
2019-02-16T23:04:11.427Z,9.43
2019-02-16T23:06:39.927Z,9.87
2019-02-16T23:09:10.588Z,10.17
2019-02-16T23:11:39.086Z,9.43
2019-02-16T23:14:07.539Z,10.13
2019-02-16T23:16:36.103Z,10.33
2019-02-16T23:19:04.588Z,10.57
2019-02-16T23:21:33.108Z,10.10
2019-02-16T23:24:01.896Z,10.57
2019-02-16T23:26:30.366Z,10.43
2019-02-16T23:28:58.860Z,10.57
2019-02-16T23:31:27.326Z,11.00
2019-02-16T23:33:56.376Z,10.60
2019-02-16T23:36:25.282Z,11.20
2019-02-16T23:38:54.141Z,11.10
2019-02-16T23:41:24.216Z,10.97
2019-02-16T23:43:53.141Z,11.10
2019-02-16T23:46:21.979Z,12.13
2019-02-16T23:48:50.573Z,12.13
2019-02-16T23:51:19.056Z,11.23
2019-02-16T23:53:47.564Z,12.17
2019-02-16T23:56:16.049Z,12.17
2019-02-16T23:58:49.312Z,11.47
